Hlavní strana
METAR-TAF:

METAR-TAF

Letiště :

Si-an, Čína

Mezinárodní letiště Si-an Sien-jang

zeměpisná šířka: 34-26N, zeměpisná délka: 108-45E, výška: 479 m

Aktuální stav počasí

Zpráva byla vytvořena před 21 minutami, v 23:00 UTC
Západojihozápadní vítr 2 kt
Teplota -3°C
Vlhkost vzduchu 86%
Tlak 1026 hPa
Viditelnost: 3500 m
kouřmo

METAR: ZLXY 182300Z 24001MPS 3500 BR NSC M03/M05 Q1026 NOSIG

Čas: 07:21 (23:21 UTC)

Předpověď počasí

Zpráva byla vytvořena před 8 hodinami a 19 minutami, v 15:02 UTC
Předpověď platná od 18 v 18 UTC do 19 v 18 UTC
Západní vítr 6 kt
Viditelnost: 3000 m
zákal

TAF: ZLXY 181502Z 1818/1918 26003MPS 3000 HZ NSC TX08/1907Z TNM06/23Z

Stav a předpovědi počasí z více než 4 000 letišť (zprávy METAR a TAF).

Červené a žluté tečky na mapě představují dostupné meteorologické stanice.

Když kurzor umístíte na tečku, zobrazí se název stanice.

Pak kliknutím zobrazíte stav a předpověď počasí.

Chcete-li změnit mapu, kliknutím na zelené tlačítko se znaménkem +mapu přiblížíte, kliknutím na zelené tlačítko se znaménkem – mapu oddálíte a kliknutím na zelené šipky přejdete na sousední mapy.


METAR-TAF: